LPPD/PDL METAR and TAF weather

Enter ICAO airport designator
Station Type Date Time Source
LPPD METAR 2020/01/22 15:30 UTC NOAA

LPPD 221530Z 05014KT 9999 FEW025 BKN035 15/07 Q1027


Station Type Date Time Source
LPPD Decoded METAR 2020/01/22 15:30 UTC NOAA

Ponta Delgada / Nordela Acores , Portugal (LPPD) 37-44N 025-42W 72M
Jan 22, 2020 - 10:30 AM EST / 2020.01.22 1530 UTC
Wind: from the NE (050 degrees) at 16 MPH (14 KT):0
Visibility: greater than 7 mile(s):0
Sky conditions: mostly cloudy
Temperature: 59 F (15 C)
Dew Point: 44 F (7 C)
Relative Humidity: 58%
Pressure (altimeter): 30.33 in. Hg (1027 hPa)
ob: LPPD 221530Z 05014KT 9999 FEW025 BKN035 15/07 Q1027
cycle: 15

Station Type Date Time Source
LPPD TAF 2020/01/22 12:18 UTC NOAA

TAF LPPD 221130Z 2212/2312 06012KT 9999 FEW020 BKN045
TEMPO 2212/2312 SCT025

Example: see airport list